South Chatham, MA (02659)

2:09 PM EDT on September 03, 2015 (GMT -0400)
south chatham | | Change Station
CLOSE
Current Station
Personal Weather Station
Location: South Chatham, MA
Elevation: 50 ft
Nearby Weather Stations

Elev 50 ft 41.67 °N, 70.01 °W | Updated 8 minutes ago

Clear
Clear
80.8 °F
Feels Like 87 °F
N
2.0
Wind Variable Wind from SSE
Gusts 2.0 mph

Today
High -- | Low -- °F
--% Chance of Precip.
Yesterday
High -- | Low -- °F
Precip. -- in
6:07 AM 7:10 PM
Waning Gibbous, 68% visible
Pressure 29.86 in
Visibility 10.0 miles
Clouds Clear
Heat Index 87 °F
Dew Point 76 °F
Humidity 84%
Rainfall 0.00 in
Snow Depth Not available.
UV 8 out of 12
Pollen 8.60 out of 12
Air Quality Not available.
Flu Activity Not available.
METAR KCQX 031752Z AUTO VRB04KT 10SM CLR 28/23 A2986 RMK AO2 SLP111 T02780228 10283 20233 58004
Pressure 29.86 in
Visibility 10.0 miles
Clouds Clear
Heat Index 87 °F
Dew Point 76 °F
Humidity 84%
Rainfall 0.00 in
Snow Depth Not available.
UV 8 out of 12
Pollen 8.60 out of 12
Air Quality Not available.
Flu Activity Not available.
METAR KCQX 031752Z AUTO VRB04KT 10SM CLR 28/23 A2986 RMK AO2 SLP111 T02780228 10283 20233 58004

10-Day Weather Forecast

×

Almanac

Astronomy

Sep. 03, 2015 Rise Set
Actual Time
Civil Twilight
Nautical Twilight
Astronomical Twilight
Moon
Length of Visible Light
Length of Day
Tomorrow will be .
, % of the Moon is Illuminated

Today's Extremes

State Highs State Lows

Community

WunderPhotos

Upload Photos

1,851,995 photos uploaded!

WunderBlogs® & News

Nearby

Air Quality

  Air Quality AQ Index Pollutant
Not available.

Snow Depth

Station Depth Elevation

Earthquake Activity

City Distance Mag. Time & Date
Minimum magnitude displayed is 2.5.

Coastal Water Temperatures

Place Temperature

Stations

Nearby Weather Stations

Station Location Temp. Windchill Dew Point Humidity Wind Precip. Elev Updated Type